Nearby METAR Reports

 

KMLP - Mullan Pass, Idaho, USA
Distance from station: NE 41mi, 66km
Updated: Sun, 17-Jan-2021 3:53pm PST
Mist, Overcast
Mist, Overcast
 Wind from NNW
Wind: NNW 8 mph , 13 km/h
Temperature: 25°F , -4°C
Wind Chill: 16°F , -9°C
Dew Point: 21°F , -6°C
Humidity: 86%
Barometer: 30.13 inHg , 1020.3 hPa
Summary: Mist
Clouds: Overcast
Visibility: 3/4 mile , 1.2 km
Cloud details: Overcast 100 ft
2021/01/17 23:53 KMLP 172353Z AUTO 33007KT 3/4SM BR VV001 M04/M06 A3013 RMK AO2 SLP243 60001 T10391061 11022 21039 53008 $
KPUW - Pullman/Moscow, Washington, USA
Distance from station: SW 42mi, 68km
Updated: Sun, 17-Jan-2021 3:53pm PST
Mist, Overcast
Mist, Overcast
 Wind from NW
Wind: NW 6 mph , 9 km/h
Temperature: 36°F , 2°C
Wind Chill: 31°F , -1°C
Dew Point: 34°F , 1°C
Humidity: 93%
Barometer: 30.32 inHg , 1026.8 hPa
Summary: Mist
Clouds: Overcast
Visibility: 5 miles , 8 km
Cloud details: Overcast 500 ft
2021/01/17 23:53 KPUW 172353Z AUTO 32005KT 5SM BR OVC005 02/01 A3032 RMK AO2 SLP288 T00170006 10044 20017 51008
 
KCOE - Coeur D'alene, Idaho, USA
Distance from station: NNW 49mi, 79km
Updated: Sun, 17-Jan-2021 3:56pm PST
Overcast
Overcast
 Wind from SW
Wind: SW 7 mph , 11 km/h
Temperature: 36°F , 2°C
Wind Chill: 30°F , -1°C
Dew Point: 34°F , 1°C
Humidity: 93%
Barometer: 30.30 inHg , 1026.1 hPa
Clouds: Overcast
Visibility: 10 miles , 16 km
Cloud details: Overcast 500 ft
2021/01/17 23:56 KCOE 172356Z AUTO 22006KT 10SM OVC005 02/01 A3030 RMK AO2 SLP301 T00170006 10017 20011 53006 FZRANO
KSFF - Spokane/Felts, Washington, USA
Distance from station: NW 59mi, 94km
Updated: Sun, 17-Jan-2021 3:53pm PST
Overcast
Overcast
 Wind from WSW
Wind: WSW 5 mph , 7 km/h
Temperature: 37°F , 3°C
Wind Chill: 33°F , 1°C
Dew Point: 34°F , 1°C
Humidity: 87%
Barometer: 30.32 inHg , 1026.8 hPa
Clouds: Overcast
Visibility: 10 miles , 16 km
Cloud details: Overcast 1100 ft
2021/01/17 23:53 KSFF 172353Z 24004KT 10SM OVC011 03/01 A3032 RMK AO2 SLP282 T00280006 10028 20022 53007
 
KLWS - Lewiston, Idaho, USA
Distance from station: SSW 59mi, 96km
Updated: Sun, 17-Jan-2021 3:56pm PST
Overcast
Overcast
 Wind from WNW
Wind: WNW 3 mph , 6 km/h
Temperature: 48°F , 9°C
Dew Point: 37°F , 3°C
Humidity: 66%
Barometer: 30.32 inHg , 1026.8 hPa
Clouds: Overcast
Visibility: 10 miles , 16 km
Cloud details: Few Clouds 4100 ft
Overcast 6500 ft
2021/01/17 23:56 KLWS 172356Z 30003KT 10SM FEW041 OVC065 09/03 A3032 RMK AO2 SLP276 T00890033 10094 20028 53005
KGEG - Spokane/Metro, Washington, USA
Distance from station: WNW 64mi, 103km
Updated: Sun, 17-Jan-2021 3:53pm PST
Overcast
Overcast
 Wind from WSW
Wind: WSW 3 mph , 6 km/h
Temperature: 34°F , 1°C
Dew Point: 30°F , -1°C
Humidity: 87%
Barometer: 30.30 inHg , 1026.1 hPa
Clouds: Overcast
Visibility: 7 miles , 11 km
Cloud details: Overcast 800 ft
2021/01/17 23:53 KGEG 172353Z 24003KT 7SM OVC008 01/M01 A3030 RMK AO2 SLP282 60000 T00111011 10011 20000 53005
 
KSKA - Fairchild Afb, Washington, USA
Distance from station: WNW 68mi, 110km
Updated: Sun, 17-Jan-2021 3:58pm PST
Overcast
Overcast
 Wind from SW
Wind: SW 6 mph , 9 km/h
Temperature: 34°F , 1°C
Wind Chill: 29°F , -2°C
Dew Point: 34°F , 1°C
Humidity: 100%
Barometer: 30.30 inHg , 1026.1 hPa
Clouds: Overcast
Visibility: 10 miles , 16 km
Cloud details: Overcast 800 ft
2021/01/17 23:58 KSKA 172358Z 22005KT 10SM OVC008 01/01 A3030 RMK AO2A CIG 007 RWY05 SLP285 T00070007 10008 20001 53006 $